Time;durP1;ratioP1;P1;durP2;ratioP2;P2;SDS_P1;SDS_P2;PMS_P1;PMS_P2;Temp;Humidity;BMP_temperature;BMP_pressure;BME280_temperature;BME280_humidity;BME280_pressure;Samples;Min_cycle;Max_cycle;Signal;HPM_P1;HPM_P2
2022/06/09 00:01:06;;;;;;;1.63;0.30;;;;;;;;;;4987808;28;20041;-61
2022/06/09 00:03:37;;;;;;;0.60;0.50;;;;;;;;;;4989467;28;20026;-61
2022/06/09 00:06:06;;;;;;;0.30;0.30;;;;;;;;;;4986931;28;20034;-61
2022/06/09 00:08:32;;;;;;;3.13;0.40;;;;;;;;;;4987524;28;20033;-61
2022/06/09 00:11:02;;;;;;;3.65;0.57;;;;;;;;;;4987324;28;20034;-61
2022/06/09 00:13:28;;;;;;;0.75;0.38;;;;;;;;;;4982704;28;20541;-61
2022/06/09 00:15:54;;;;;;;1.38;0.45;;;;;;;;;;4986624;28;20483;-61
2022/06/09 00:18:21;;;;;;;1.85;0.50;;;;;;;;;;4988527;28;20093;-61
2022/06/09 00:20:47;;;;;;;0.55;0.30;;;;;;;;;;4987714;28;20771;-61
2022/06/09 00:23:16;;;;;;;1.40;0.68;;;;;;;;;;4988967;28;20034;-61
2022/06/09 00:25:42;;;;;;;0.40;0.40;;;;;;;;;;4988960;28;20178;-61
2022/06/09 00:28:08;;;;;;;0.88;0.30;;;;;;;;;;4987865;28;20035;-61
2022/06/09 00:30:34;;;;;;;0.47;0.32;;;;;;;;;;4985702;28;20045;-61
2022/06/09 00:32:59;;;;;;;0.22;0.20;;;;;;;;;;4983897;28;20154;-61
2022/06/09 00:35:25;;;;;;;0.32;0.32;;;;;;;;;;4987165;28;20126;-61
2022/06/09 00:37:52;;;;;;;2.33;0.60;;;;;;;;;;4984703;28;20033;-61
2022/06/09 00:40:18;;;;;;;1.23;0.57;;;;;;;;;;4984998;28;20038;-61
2022/06/09 00:42:43;;;;;;;0.45;0.40;;;;;;;;;;4988027;28;20030;-61
2022/06/09 00:45:26;;;;;;;0.73;0.40;;;;;;;;;;4986770;28;20516;-61
2022/06/09 00:47:56;;;;;;;0.30;0.30;;;;;;;;;;4982547;28;20031;-61
2022/06/09 00:50:24;;;;;;;0.50;0.50;;;;;;;;;;4985852;28;20105;-61
2022/06/09 00:52:56;;;;;;;0.55;0.30;;;;;;;;;;4985990;28;20169;-61
2022/06/09 00:55:24;;;;;;;4.13;0.52;;;;;;;;;;4985189;28;20035;-61
2022/06/09 00:57:57;;;;;;;1.92;0.47;;;;;;;;;;4987558;28;20487;-61
2022/06/09 01:00:29;;;;;;;0.65;0.38;;;;;;;;;;4988317;28;20034;-61
2022/06/09 01:02:58;;;;;;;0.20;0.20;;;;;;;;;;4983960;28;20065;-61
2022/06/09 01:05:29;;;;;;;1.08;0.40;;;;;;;;;;4986026;28;20515;-61
2022/06/09 01:07:59;;;;;;;0.35;0.35;;;;;;;;;;4984374;28;20068;-61
2022/06/09 01:10:27;;;;;;;0.50;0.30;;;;;;;;;;4984497;28;20047;-61
2022/06/09 01:12:53;;;;;;;1.40;0.43;;;;;;;;;;4985612;28;20109;-61
2022/06/09 01:15:23;;;;;;;0.30;0.30;;;;;;;;;;4985248;28;20391;-61
2022/06/09 01:18:04;;;;;;;0.30;0.30;;;;;;;;;;4984409;28;20427;-61
2022/06/09 01:20:51;;;;;;;1.52;0.50;;;;;;;;;;4986905;28;20531;-61
2022/06/09 01:23:47;;;;;;;1.75;0.40;;;;;;;;;;4985288;28;20070;-61
2022/06/09 01:26:36;;;;;;;0.40;0.40;;;;;;;;;;4986250;28;20404;-61
2022/06/09 01:29:25;;;;;;;3.67;0.45;;;;;;;;;;4983137;28;20037;-61
2022/06/09 01:31:59;;;;;;;0.32;0.20;;;;;;;;;;4971206;28;20053;-61
2022/06/09 01:34:41;;;;;;;0.20;0.20;;;;;;;;;;4982702;28;20119;-60
2022/06/09 01:37:15;;;;;;;1.10;0.47;;;;;;;;;;4984624;28;20033;-61
2022/06/09 01:40:00;;;;;;;0.32;0.32;;;;;;;;;;4983259;28;20045;-61
2022/06/09 01:42:35;;;;;;;1.38;0.38;;;;;;;;;;4985816;28;20037;-61
2022/06/09 01:45:09;;;;;;;1.05;0.50;;;;;;;;;;4982917;28;20034;-61
2022/06/09 01:47:47;;;;;;;11.77;0.82;;;;;;;;;;4986449;28;20098;-62
2022/06/09 01:50:23;;;;;;;0.70;0.50;;;;;;;;;;4984403;28;20114;-61
2022/06/09 01:52:51;;;;;;;1.98;0.60;;;;;;;;;;4986549;28;20030;-61
2022/06/09 01:55:19;;;;;;;0.30;0.30;;;;;;;;;;4984727;28;20025;-61
2022/06/09 01:57:49;;;;;;;0.95;0.40;;;;;;;;;;4986107;28;20042;-61
2022/06/09 02:00:18;;;;;;;0.80;0.65;;;;;;;;;;4984466;28;20134;-61
2022/06/09 02:02:51;;;;;;;1.65;0.50;;;;;;;;;;4985895;28;20077;-61
2022/06/09 02:05:27;;;;;;;1.73;0.60;;;;;;;;;;4986066;28;20027;-61
2022/06/09 02:07:55;;;;;;;2.92;0.35;;;;;;;;;;4983041;28;20056;-60
2022/06/09 02:10:31;;;;;;;1.52;0.30;;;;;;;;;;4986384;28;20034;-61
2022/06/09 02:13:01;;;;;;;1.58;0.50;;;;;;;;;;4985548;28;20080;-61
2022/06/09 02:15:38;;;;;;;0.57;0.50;;;;;;;;;;4982432;28;20510;-61
2022/06/09 02:18:11;;;;;;;0.60;0.50;;;;;;;;;;4985127;28;20406;-61
2022/06/09 02:20:42;;;;;;;0.95;0.70;;;;;;;;;;4964359;28;20383;-61
2022/06/09 02:23:13;;;;;;;0.30;0.30;;;;;;;;;;4984344;28;20089;-61
2022/06/09 02:25:39;;;;;;;3.85;0.57;;;;;;;;;;4986389;28;20443;-61
2022/06/09 02:28:06;;;;;;;0.47;0.47;;;;;;;;;;4984553;28;20038;-61
2022/06/09 02:30:32;;;;;;;1.13;0.50;;;;;;;;;;4985530;28;20117;-61
2022/06/09 02:32:58;;;;;;;2.03;0.60;;;;;;;;;;4985285;28;20053;-61
2022/06/09 02:35:23;;;;;;;1.02;0.55;;;;;;;;;;4984075;28;20027;-61
2022/06/09 02:37:49;;;;;;;0.70;0.45;;;;;;;;;;4984413;28;20023;-61
2022/06/09 02:40:15;;;;;;;1.52;0.52;;;;;;;;;;4985299;28;20533;-61
2022/06/09 02:42:40;;;;;;;0.90;0.70;;;;;;;;;;4983531;28;20034;-60
2022/06/09 02:45:07;;;;;;;0.32;0.30;;;;;;;;;;4985237;28;20034;-61
2022/06/09 02:47:34;;;;;;;2.85;0.68;;;;;;;;;;4983227;28;20055;-61
2022/06/09 02:50:00;;;;;;;2.35;0.60;;;;;;;;;;4984348;28;20089;-61
2022/06/09 02:52:27;;;;;;;2.38;0.75;;;;;;;;;;4983982;28;20037;-61
2022/06/09 02:54:54;;;;;;;1.45;0.95;;;;;;;;;;4986370;28;20031;-61
2022/06/09 02:57:23;;;;;;;2.80;0.68;;;;;;;;;;4983284;28;20037;-61
2022/06/09 02:59:51;;;;;;;2.03;0.70;;;;;;;;;;4985719;28;20044;-61
2022/06/09 03:02:19;;;;;;;1.05;0.60;;;;;;;;;;4985801;28;20026;-61
2022/06/09 03:04:45;;;;;;;2.03;0.55;;;;;;;;;;4985209;28;20118;-61
2022/06/09 03:07:12;;;;;;;1.55;0.52;;;;;;;;;;4984859;28;20031;-61
2022/06/09 03:09:40;;;;;;;4.60;1.30;;;;;;;;;;4986327;28;20079;-61
2022/06/09 03:12:09;;;;;;;2.03;0.50;;;;;;;;;;4983779;28;20030;-61
2022/06/09 03:14:35;;;;;;;5.85;1.60;;;;;;;;;;4985729;28;20387;-61
2022/06/09 03:17:02;;;;;;;0.90;0.50;;;;;;;;;;4987507;28;20022;-61
2022/06/09 03:19:28;;;;;;;1.45;0.70;;;;;;;;;;4988804;28;20045;-61
2022/06/09 03:21:54;;;;;;;0.93;0.47;;;;;;;;;;4990565;28;20030;-61
2022/06/09 03:24:20;;;;;;;1.42;0.65;;;;;;;;;;4987228;28;20092;-61
2022/06/09 03:26:45;;;;;;;0.70;0.43;;;;;;;;;;4988927;28;20042;-61
2022/06/09 03:29:12;;;;;;;2.63;0.68;;;;;;;;;;4988922;28;20042;-61
2022/06/09 03:31:37;;;;;;;1.02;0.80;;;;;;;;;;4985846;28;20076;-61
2022/06/09 03:34:03;;;;;;;1.42;0.52;;;;;;;;;;4986880;28;20117;-61
2022/06/09 03:36:31;;;;;;;1.60;0.47;;;;;;;;;;4988412;28;20074;-61
2022/06/09 03:38:58;;;;;;;0.50;0.50;;;;;;;;;;4988031;28;20476;-61
2022/06/09 03:41:25;;;;;;;0.82;0.50;;;;;;;;;;4983253;28;21082;-61
2022/06/09 03:43:50;;;;;;;1.83;0.50;;;;;;;;;;4987795;28;20160;-61
2022/06/09 03:46:16;;;;;;;1.05;0.50;;;;;;;;;;4987544;28;20129;-61
2022/06/09 03:48:42;;;;;;;1.90;0.80;;;;;;;;;;4986341;28;20135;-61
2022/06/09 03:51:11;;;;;;;0.88;0.70;;;;;;;;;;4984780;28;20073;-61
2022/06/09 03:53:36;;;;;;;2.45;0.70;;;;;;;;;;4987153;28;20027;-61
2022/06/09 03:56:02;;;;;;;0.68;0.52;;;;;;;;;;4986036;28;20034;-61
2022/06/09 03:58:28;;;;;;;2.17;0.50;;;;;;;;;;4986158;28;20026;-61
2022/06/09 04:00:54;;;;;;;3.35;0.88;;;;;;;;;;4989852;28;20080;-61
2022/06/09 04:03:20;;;;;;;2.13;0.50;;;;;;;;;;4988043;28;20517;-61
2022/06/09 04:05:46;;;;;;;0.93;0.80;;;;;;;;;;4969830;28;20038;-61
2022/06/09 04:08:12;;;;;;;0.55;0.55;;;;;;;;;;4985789;28;20037;-61
2022/06/09 04:10:38;;;;;;;1.00;0.75;;;;;;;;;;4986853;28;20034;-61
2022/06/09 04:13:05;;;;;;;1.27;0.80;;;;;;;;;;4987283;28;20027;-60
2022/06/09 04:15:31;;;;;;;4.93;0.60;;;;;;;;;;4987436;28;20034;-61
2022/06/09 04:17:57;;;;;;;1.88;0.80;;;;;;;;;;4989603;28;20034;-61
2022/06/09 04:20:25;;;;;;;2.83;0.70;;;;;;;;;;4986457;28;20548;-61
2022/06/09 04:22:51;;;;;;;1.13;0.50;;;;;;;;;;4987844;28;20035;-61
2022/06/09 04:25:19;;;;;;;2.25;1.20;;;;;;;;;;4986128;28;20065;-61
2022/06/09 04:27:45;;;;;;;1.30;0.80;;;;;;;;;;4989027;28;20050;-59
2022/06/09 04:30:13;;;;;;;0.73;0.40;;;;;;;;;;4988677;28;20050;-62
2022/06/09 04:32:38;;;;;;;2.88;0.80;;;;;;;;;;4985296;28;20018;-61
2022/06/09 04:35:05;;;;;;;1.05;0.60;;;;;;;;;;4987504;28;20022;-60
2022/06/09 04:40:15;;;;;;;2.45;0.75;;;;;;;;;;4987331;28;20043;-61
2022/06/09 04:42:40;;;;;;;1.40;0.50;;;;;;;;;;4987066;28;20039;-61
2022/06/09 04:45:07;;;;;;;1.90;0.90;;;;;;;;;;4989044;28;20488;-61
2022/06/09 04:47:33;;;;;;;2.45;0.60;;;;;;;;;;4988400;28;20026;-61
2022/06/09 04:49:58;;;;;;;2.85;0.82;;;;;;;;;;4986058;28;20048;-61
2022/06/09 04:52:24;;;;;;;3.20;0.82;;;;;;;;;;4985076;28;20028;-61
2022/06/09 04:54:50;;;;;;;1.48;0.75;;;;;;;;;;4981311;28;20030;-61
2022/06/09 04:57:16;;;;;;;2.83;0.68;;;;;;;;;;4981874;28;20030;-61
2022/06/09 04:59:41;;;;;;;1.10;0.73;;;;;;;;;;4988262;28;20038;-61
2022/06/09 05:02:07;;;;;;;1.80;0.90;;;;;;;;;;4983570;28;20062;-60
2022/06/09 05:04:33;;;;;;;2.72;0.90;;;;;;;;;;4986069;28;20034;-60
2022/06/09 05:06:58;;;;;;;7.13;0.90;;;;;;;;;;4984726;28;20034;-61
2022/06/09 05:09:24;;;;;;;2.25;0.60;;;;;;;;;;4983585;28;20049;-60
2022/06/09 05:11:50;;;;;;;2.85;1.10;;;;;;;;;;4986877;28;20026;-60
2022/06/09 05:14:15;;;;;;;6.22;1.08;;;;;;;;;;4986452;28;20030;-60
2022/06/09 05:16:41;;;;;;;1.95;1.08;;;;;;;;;;4982977;28;20063;-61
2022/06/09 05:19:07;;;;;;;3.13;1.05;;;;;;;;;;4985064;28;20045;-60
2022/06/09 05:21:32;;;;;;;2.95;1.10;;;;;;;;;;4985323;28;20085;-60
2022/06/09 05:23:58;;;;;;;1.80;0.98;;;;;;;;;;4984496;28;20031;-60
2022/06/09 05:26:23;;;;;;;9.07;2.35;;;;;;;;;;4986919;28;20450;-60
2022/06/09 05:28:49;;;;;;;2.53;1.20;;;;;;;;;;4986748;28;20034;-61
2022/06/09 05:31:15;;;;;;;2.70;1.33;;;;;;;;;;4967891;28;20467;-60
2022/06/09 05:33:42;;;;;;;2.03;1.08;;;;;;;;;;4983694;28;20035;-60
2022/06/09 05:36:08;;;;;;;10.68;1.48;;;;;;;;;;4986349;28;20022;-60
2022/06/09 05:46:48;;;;;;;3.97;1.23;;;;;;;;;;4986180;28;20049;-60
2022/06/09 05:49:15;;;;;;;3.53;1.20;;;;;;;;;;4984325;28;20025;-60
2022/06/09 05:51:41;;;;;;;4.18;1.38;;;;;;;;;;4986969;28;20459;-60
2022/06/09 05:54:07;;;;;;;4.85;1.50;;;;;;;;;;4981030;28;20073;-60
2022/06/09 05:56:33;;;;;;;8.15;1.40;;;;;;;;;;4978813;28;20034;-60
2022/06/09 05:58:59;;;;;;;4.90;1.20;;;;;;;;;;4978984;28;20100;-60
2022/06/09 06:01:25;;;;;;;11.20;1.63;;;;;;;;;;4979277;28;20038;-60
2022/06/09 06:03:51;;;;;;;4.50;1.38;;;;;;;;;;4981508;28;20037;-60
2022/06/09 06:06:35;;;;;;;5.90;1.30;;;;;;;;;;4981704;28;20021;-59
2022/06/09 06:09:06;;;;;;;6.30;1.52;;;;;;;;;;4983941;28;20026;-60
2022/06/09 06:11:33;;;;;;;5.00;1.60;;;;;;;;;;4984094;28;20138;-60
2022/06/09 06:13:59;;;;;;;5.78;1.45;;;;;;;;;;4983297;28;20420;-62
2022/06/09 06:16:25;;;;;;;17.77;1.60;;;;;;;;;;4978159;28;20056;-60
2022/06/09 06:18:51;;;;;;;2.72;1.20;;;;;;;;;;4985789;28;20038;-61
2022/06/09 06:21:17;;;;;;;4.57;1.60;;;;;;;;;;4980771;28;20431;-60
2022/06/09 06:23:43;;;;;;;6.47;1.60;;;;;;;;;;4983256;28;20030;-62
2022/06/09 06:26:11;;;;;;;8.35;1.73;;;;;;;;;;4979506;28;20930;-60
2022/06/09 06:28:37;;;;;;;10.25;1.50;;;;;;;;;;4982106;28;20454;-59
2022/06/09 06:31:03;;;;;;;7.72;1.73;;;;;;;;;;4980768;28;20121;-60
2022/06/09 06:33:29;;;;;;;15.65;2.10;;;;;;;;;;4983204;28;20046;-61
2022/06/09 06:35:55;;;;;;;8.63;1.85;;;;;;;;;;4980971;28;20117;-59
2022/06/09 06:38:20;;;;;;;8.80;1.83;;;;;;;;;;4983547;28;20652;-59
2022/06/09 06:40:47;;;;;;;5.03;1.38;;;;;;;;;;4981486;28;20121;-59
2022/06/09 06:43:13;;;;;;;6.40;1.65;;;;;;;;;;4984434;28;20060;-61
2022/06/09 06:45:39;;;;;;;10.60;1.70;;;;;;;;;;4982170;28;20042;-61
2022/06/09 06:48:05;;;;;;;6.88;1.50;;;;;;;;;;4979544;28;20039;-61
2022/06/09 06:50:31;;;;;;;11.80;1.98;;;;;;;;;;4979609;28;20043;-60
2022/06/09 06:52:57;;;;;;;8.70;2.03;;;;;;;;;;4984952;28;20022;-60
2022/06/09 06:55:23;;;;;;;5.68;1.35;;;;;;;;;;4983298;28;20041;-60
2022/06/09 06:57:50;;;;;;;6.80;1.58;;;;;;;;;;4985696;28;20663;-62
2022/06/09 07:00:20;;;;;;;8.68;1.73;;;;;;;;;;4970928;28;20034;-61
2022/06/09 07:02:47;;;;;;;7.90;1.60;;;;;;;;;;4969359;28;20113;-61
2022/06/09 07:05:13;;;;;;;8.77;1.50;;;;;;;;;;4987232;28;20027;-61
2022/06/09 07:07:40;;;;;;;10.70;1.60;;;;;;;;;;4985776;28;20049;-62
2022/06/09 07:10:07;;;;;;;11.80;2.05;;;;;;;;;;4985435;28;20113;-62
2022/06/09 07:12:33;;;;;;;12.13;2.72;;;;;;;;;;4976700;28;20070;-62
2022/06/09 07:14:59;;;;;;;12.57;1.58;;;;;;;;;;4978674;28;20415;-62
2022/06/09 07:17:25;;;;;;;13.00;1.80;;;;;;;;;;4988100;28;20041;-61
2022/06/09 07:19:51;;;;;;;11.70;2.08;;;;;;;;;;4975912;28;20049;-61
2022/06/09 07:22:17;;;;;;;7.15;2.05;;;;;;;;;;4982215;28;20046;-62
2022/06/09 07:24:43;;;;;;;4.45;1.67;;;;;;;;;;4986546;28;20026;-61
2022/06/09 07:27:08;;;;;;;14.02;2.38;;;;;;;;;;4987129;28;20069;-61
2022/06/09 07:29:34;;;;;;;15.48;2.22;;;;;;;;;;4989864;28;20033;-62
2022/06/09 07:32:00;;;;;;;16.05;2.20;;;;;;;;;;4986108;28;20030;-62
2022/06/09 07:34:26;;;;;;;26.48;2.58;;;;;;;;;;4985654;28;20034;-61
2022/06/09 07:36:53;;;;;;;10.98;2.47;;;;;;;;;;4986075;28;20026;-62
2022/06/09 07:39:19;;;;;;;10.50;1.50;;;;;;;;;;4987370;28;20511;-62
2022/06/09 07:41:45;;;;;;;18.98;2.40;;;;;;;;;;4984130;28;20234;-62
2022/06/09 07:44:11;;;;;;;12.77;2.00;;;;;;;;;;4983530;28;20133;-62
2022/06/09 07:46:39;;;;;;;6.45;1.35;;;;;;;;;;4979005;28;20379;-61
2022/06/09 07:49:06;;;;;;;5.97;1.77;;;;;;;;;;4979394;28;20771;-62
2022/06/09 07:51:32;;;;;;;8.20;1.70;;;;;;;;;;4985206;28;20683;-62
2022/06/09 07:53:59;;;;;;;12.18;2.13;;;;;;;;;;4984650;28;20038;-63
2022/06/09 07:56:24;;;;;;;14.43;1.98;;;;;;;;;;4983285;28;20031;-61
2022/06/09 07:58:50;;;;;;;6.80;1.30;;;;;;;;;;4982802;28;20081;-61
2022/06/09 08:01:18;;;;;;;13.60;2.53;;;;;;;;;;4983552;28;20034;-61
2022/06/09 08:03:44;;;;;;;7.97;2.33;;;;;;;;;;4980543;28;20360;-61
2022/06/09 08:06:11;;;;;;;23.75;2.67;;;;;;;;;;4983332;28;20029;-61
2022/06/09 08:08:36;;;;;;;6.78;2.55;;;;;;;;;;4983119;28;20042;-61
2022/06/09 08:11:05;;;;;;;13.52;2.05;;;;;;;;;;4982577;28;20479;-61
2022/06/09 08:13:32;;;;;;;15.10;1.90;;;;;;;;;;4983643;28;20567;-62
2022/06/09 08:15:58;;;;;;;19.60;2.20;;;;;;;;;;4983766;28;20162;-62
2022/06/09 08:18:24;;;;;;;12.80;2.08;;;;;;;;;;4984606;28;20044;-62
2022/06/09 08:20:51;;;;;;;23.75;2.80;;;;;;;;;;4984210;28;20019;-61
2022/06/09 08:23:21;;;;;;;16.23;1.92;;;;;;;;;;4984079;28;20026;-61
2022/06/09 08:25:48;;;;;;;13.75;2.00;;;;;;;;;;4984216;28;20069;-62
2022/06/09 08:28:19;;;;;;;9.90;1.98;;;;;;;;;;4982641;28;20054;-61
2022/06/09 08:30:54;;;;;;;7.85;1.95;;;;;;;;;;4988648;28;20136;-61
2022/06/09 08:33:21;;;;;;;7.45;1.67;;;;;;;;;;4987523;28;20029;-61
2022/06/09 08:35:47;;;;;;;12.88;1.95;;;;;;;;;;4987101;28;20034;-62
2022/06/09 08:38:13;;;;;;;23.00;2.40;;;;;;;;;;4985669;28;20387;-62
2022/06/09 08:40:44;;;;;;;16.73;2.30;;;;;;;;;;4984228;28;20042;-59
2022/06/09 08:43:34;;;;;;;16.60;2.00;;;;;;;;;;4979278;28;20041;-62
2022/06/09 08:46:13;;;;;;;8.70;1.80;;;;;;;;;;4984197;28;20038;-61
2022/06/09 08:48:43;;;;;;;13.93;2.25;;;;;;;;;;4984523;28;20133;-59
2022/06/09 08:51:15;;;;;;;12.57;1.83;;;;;;;;;;4984271;28;20182;-62
2022/06/09 08:53:45;;;;;;;;;;;;;;;;;;4979365;28;20172;-62
2022/06/09 08:56:30;;;;;;;7.03;1.75;;;;;;;;;;4980845;28;19918;-62
2022/06/09 08:59:12;;;;;;;17.85;2.47;;;;;;;;;;4981379;28;20837;-63
2022/06/09 09:01:50;;;;;;;;;;;;;;;;;;4984782;28;20057;-63
2022/06/09 09:04:22;;;;;;;17.33;1.65;;;;;;;;;;4981181;28;19936;-62
2022/06/09 09:06:56;;;;;;;17.35;1.80;;;;;;;;;;4982717;28;20027;-60
2022/06/09 09:09:29;;;;;;;15.05;1.90;;;;;;;;;;4984915;28;20074;-63
2022/06/09 09:12:03;;;;;;;13.00;2.15;;;;;;;;;;4982906;28;20031;-60
2022/06/09 09:14:37;;;;;;;10.65;1.65;;;;;;;;;;4983519;28;20038;-61
2022/06/09 09:17:12;;;;;;;5.35;1.70;;;;;;;;;;4979080;28;20057;-61
2022/06/09 09:19:56;;;;;;;16.15;2.38;;;;;;;;;;4979555;28;20097;-59
2022/06/09 09:22:37;;;;;;;11.40;1.85;;;;;;;;;;4982012;28;20042;-60
2022/06/09 09:25:12;;;;;;;6.43;1.80;;;;;;;;;;4977610;28;20027;-60
2022/06/09 09:28:07;;;;;;;6.18;1.42;;;;;;;;;;4982323;28;20398;-60
2022/06/09 09:31:13;;;;;;;12.63;1.63;;;;;;;;;;4921029;29;20148;-61
2022/06/09 09:33:39;;;;;;;9.57;1.95;;;;;;;;;;4920473;29;20700;-60
2022/06/09 09:36:22;;;;;;;11.20;1.83;;;;;;;;;;4921241;29;20054;-61
2022/06/09 09:38:55;;;;;;;6.95;1.60;;;;;;;;;;4920739;29;20646;-60
2022/06/09 09:41:36;;;;;;;9.65;2.38;;;;;;;;;;4921331;29;20106;-62
2022/06/09 09:44:21;;;;;;;6.40;1.95;;;;;;;;;;4916241;29;20027;-62
2022/06/09 09:46:50;;;;;;;9.95;2.08;;;;;;;;;;4924804;29;20174;-60
2022/06/09 09:49:22;;;;;;;7.03;2.10;;;;;;;;;;4918440;29;20039;-60
2022/06/09 09:51:48;;;;;;;;;;;;;;;;;;4927428;29;20046;-59
2022/06/09 09:54:31;;;;;;;10.95;1.50;;;;;;;;;;4921329;29;19926;-62
2022/06/09 09:57:17;;;;;;;12.00;1.70;;;;;;;;;;4926101;29;20039;-60
2022/06/09 09:59:53;;;;;;;11.25;2.28;;;;;;;;;;4925326;29;20061;-60
2022/06/09 10:08:36;;;;;;;13.20;1.90;;;;;;;;;;4965668;28;20067;-60
2022/06/09 10:11:53;;;;;;;7.38;1.50;;;;;;;;;;4980169;28;20026;-60
2022/06/09 10:13:52;;;;;;;9.65;1.65;;;;;;;;;;4982811;28;20026;-60
2022/06/09 10:16:20;;;;;;;8.68;1.60;;;;;;;;;;4981610;28;20034;-60
2022/06/09 10:18:52;;;;;;;12.35;1.83;;;;;;;;;;4978852;28;20041;-60
2022/06/09 10:21:18;;;;;;;9.32;1.70;;;;;;;;;;4983039;28;20504;-60
2022/06/09 10:24:08;;;;;;;10.20;2.10;;;;;;;;;;4982667;28;20042;-60
2022/06/09 10:26:40;;;;;;;6.72;1.55;;;;;;;;;;4982089;28;20103;-61
2022/06/09 10:29:20;;;;;;;12.98;1.85;;;;;;;;;;4987158;28;20471;-61
2022/06/09 10:32:14;;;;;;;6.13;1.40;;;;;;;;;;4983791;28;20604;-62
2022/06/09 10:34:43;;;;;;;11.23;1.58;;;;;;;;;;4986909;28;20049;-63
2022/06/09 10:37:20;;;;;;;7.90;1.92;;;;;;;;;;4987080;28;20038;-62
2022/06/09 10:40:05;;;;;;;10.88;2.00;;;;;;;;;;4989026;28;20037;-58
2022/06/09 10:42:46;;;;;;;7.07;1.63;;;;;;;;;;4991201;28;20026;-60
2022/06/09 10:45:45;;;;;;;11.95;2.42;;;;;;;;;;4986412;28;20030;-60
2022/06/09 10:57:23;;;;;;;8.07;1.52;;;;;;;;;;4990057;28;20049;-62
2022/06/09 10:59:52;;;;;;;6.90;1.40;;;;;;;;;;4987974;28;20435;-60
2022/06/09 11:02:21;;;;;;;12.50;1.92;;;;;;;;;;4988537;28;20399;-59
2022/06/09 11:04:49;;;;;;;5.70;1.80;;;;;;;;;;4987435;28;20463;-60
2022/06/09 11:07:27;;;;;;;3.95;1.63;;;;;;;;;;4987360;28;20061;-60
2022/06/09 11:09:59;;;;;;;7.20;1.67;;;;;;;;;;4986230;28;20036;-60
2022/06/09 11:12:37;;;;;;;7.85;1.70;;;;;;;;;;4989178;28;20186;-62
2022/06/09 11:15:15;;;;;;;7.03;1.88;;;;;;;;;;4986422;28;20034;-61
2022/06/09 11:17:46;;;;;;;12.13;1.70;;;;;;;;;;4989175;28;20498;-61
2022/06/09 11:20:33;;;;;;;9.57;1.58;;;;;;;;;;4985507;28;20102;-63
2022/06/09 11:23:45;;;;;;;17.13;2.13;;;;;;;;;;4985615;28;20140;-60
2022/06/09 11:26:23;;;;;;;16.45;2.03;;;;;;;;;;4989057;28;20145;-60
2022/06/09 11:29:23;;;;;;;18.50;1.95;;;;;;;;;;4987028;28;20166;-60
2022/06/09 11:31:55;;;;;;;5.28;1.42;;;;;;;;;;4992107;28;20045;-61
2022/06/09 11:34:26;;;;;;;8.32;1.80;;;;;;;;;;4989392;28;20033;-60
2022/06/09 11:37:02;;;;;;;13.18;1.67;;;;;;;;;;4986420;28;20031;-61
2022/06/09 11:39:49;;;;;;;11.15;1.52;;;;;;;;;;4986634;28;20042;-61
2022/06/09 11:42:37;;;;;;;15.45;1.70;;;;;;;;;;4980543;28;20042;-61
2022/06/09 11:45:34;;;;;;;8.73;1.65;;;;;;;;;;4984985;28;20037;-61
2022/06/09 11:48:04;;;;;;;17.88;2.70;;;;;;;;;;4981451;28;20386;-61
2022/06/09 11:50:40;;;;;;;10.07;1.63;;;;;;;;;;4983189;28;20023;-61
2022/06/09 11:53:06;;;;;;;7.07;1.58;;;;;;;;;;4980379;28;20034;-61
2022/06/09 11:58:35;;;;;;;11.55;1.10;;;;;;;;;;4983382;28;20026;-61
2022/06/09 12:01:18;;;;;;;4.95;1.30;;;;;;;;;;4984391;28;20176;-62
2022/06/09 12:04:02;;;;;;;7.97;1.23;;;;;;;;;;4985679;28;20027;-62
2022/06/09 12:06:45;;;;;;;11.85;1.73;;;;;;;;;;4987120;28;20027;-61
2022/06/09 12:09:50;;;;;;;6.57;1.60;;;;;;;;;;4981255;28;20505;-61
2022/06/09 12:12:31;;;;;;;5.90;1.65;;;;;;;;;;4983467;28;20171;-63
2022/06/09 12:15:11;;;;;;;7.10;1.52;;;;;;;;;;4987290;28;20116;-61
2022/06/09 12:17:54;;;;;;;4.60;1.45;;;;;;;;;;4980790;28;20037;-61
2022/06/09 12:20:40;;;;;;;11.75;1.80;;;;;;;;;;4982740;28;20034;-62
2022/06/09 12:23:29;;;;;;;8.10;1.33;;;;;;;;;;4981566;28;20034;-62
2022/06/09 12:26:10;;;;;;;14.48;1.73;;;;;;;;;;4979616;28;20051;-61
2022/06/09 12:28:55;;;;;;;5.10;1.33;;;;;;;;;;4983170;28;20035;-61
2022/06/09 12:31:43;;;;;;;16.40;1.50;;;;;;;;;;4983714;28;20034;-61
2022/06/09 12:34:12;;;;;;;8.05;1.10;;;;;;;;;;4982421;28;20050;-61
2022/06/09 12:36:57;;;;;;;3.55;1.13;;;;;;;;;;4977887;28;20038;-61
2022/06/09 12:39:38;;;;;;;3.50;1.30;;;;;;;;;;4984722;28;20034;-61
2022/06/09 12:42:16;;;;;;;4.25;0.93;;;;;;;;;;4981346;28;20030;-61
2022/06/09 12:45:16;;;;;;;13.18;1.23;;;;;;;;;;4979049;28;20038;-61
2022/06/09 12:48:03;;;;;;;6.18;0.80;;;;;;;;;;4926406;29;20130;-61
2022/06/09 12:50:43;;;;;;;19.05;1.77;;;;;;;;;;4924216;29;20044;-60
2022/06/09 12:53:19;;;;;;;5.22;0.82;;;;;;;;;;4923433;29;20432;-59
2022/06/09 12:55:53;;;;;;;19.88;1.30;;;;;;;;;;4927673;29;20613;-61
2022/06/09 12:58:22;;;;;;;18.15;1.60;;;;;;;;;;4922598;29;20102;-61
2022/06/09 13:00:54;;;;;;;3.67;0.95;;;;;;;;;;4928870;29;20036;-61
2022/06/09 13:03:31;;;;;;;7.30;1.33;;;;;;;;;;4925842;29;20039;-61
2022/06/09 13:06:10;;;;;;;12.45;1.20;;;;;;;;;;4925534;29;20028;-61
2022/06/09 13:08:44;;;;;;;7.88;1.10;;;;;;;;;;4929617;29;20039;-61
2022/06/09 13:11:19;;;;;;;12.10;1.10;;;;;;;;;;4930611;29;20122;-61
2022/06/09 13:13:46;;;;;;;7.82;0.88;;;;;;;;;;4925939;29;20078;-60
2022/06/09 13:16:22;;;;;;;7.32;1.00;;;;;;;;;;4924894;29;20050;-60
2022/06/09 13:18:55;;;;;;;5.05;1.10;;;;;;;;;;4924193;29;20512;-60
2022/06/09 13:21:31;;;;;;;1.85;0.75;;;;;;;;;;4922989;29;20424;-62
2022/06/09 13:23:59;;;;;;;2.88;0.90;;;;;;;;;;4969686;28;20056;-61
2022/06/09 13:26:32;;;;;;;6.63;0.85;;;;;;;;;;4979624;28;20059;-61
2022/06/09 13:29:00;;;;;;;3.88;0.90;;;;;;;;;;4981841;28;20069;-61
2022/06/09 13:31:26;;;;;;;28.25;1.45;;;;;;;;;;4982718;28;20521;-60
2022/06/09 13:33:57;;;;;;;8.45;0.80;;;;;;;;;;4981742;28;20034;-60
2022/06/09 13:36:29;;;;;;;4.90;1.10;;;;;;;;;;4980885;28;20030;-62
2022/06/09 13:38:56;;;;;;;10.00;1.08;;;;;;;;;;4982111;28;20093;-60
2022/06/09 13:41:26;;;;;;;11.23;1.05;;;;;;;;;;4982961;28;20101;-59
2022/06/09 13:43:56;;;;;;;15.80;0.98;;;;;;;;;;4985768;28;20394;-59
2022/06/09 13:46:24;;;;;;;3.65;0.75;;;;;;;;;;4980912;28;20117;-60
2022/06/09 13:48:56;;;;;;;8.30;0.95;;;;;;;;;;4983519;28;20049;-59
2022/06/09 13:51:33;;;;;;;11.77;1.00;;;;;;;;;;4977475;28;20048;-59
2022/06/09 13:54:13;;;;;;;10.90;1.30;;;;;;;;;;4982851;28;20026;-59
2022/06/09 13:56:39;;;;;;;18.38;1.35;;;;;;;;;;4985381;28;20065;-59
2022/06/09 13:59:05;;;;;;;20.95;1.17;;;;;;;;;;4983887;28;20026;-61
2022/06/09 14:01:31;;;;;;;9.38;1.10;;;;;;;;;;4977735;28;20525;-60
2022/06/09 14:03:59;;;;;;;6.45;1.08;;;;;;;;;;4983447;28;20069;-61
2022/06/09 14:06:25;;;;;;;13.90;1.02;;;;;;;;;;4984441;28;20034;-60
2022/06/09 14:08:55;;;;;;;11.40;1.10;;;;;;;;;;4981949;28;20062;-59
2022/06/09 14:11:29;;;;;;;5.90;1.00;;;;;;;;;;4980400;28;20026;-61
2022/06/09 14:13:55;;;;;;;4.07;0.98;;;;;;;;;;4984944;28;20033;-60
2022/06/09 14:16:28;;;;;;;6.85;0.90;;;;;;;;;;4981181;28;20026;-60
2022/06/09 14:18:54;;;;;;;8.18;0.80;;;;;;;;;;4980754;28;20041;-59
2022/06/09 14:21:21;;;;;;;2.20;0.90;;;;;;;;;;4977645;28;20881;-60
2022/06/09 14:23:47;;;;;;;8.68;1.30;;;;;;;;;;4985489;28;20034;-60
2022/06/09 14:26:21;;;;;;;6.07;1.30;;;;;;;;;;4978035;28;20073;-58
2022/06/09 14:28:50;;;;;;;9.15;1.13;;;;;;;;;;4985216;28;20038;-59
2022/06/09 14:31:17;;;;;;;18.73;1.30;;;;;;;;;;4985102;28;20121;-59
2022/06/09 14:33:44;;;;;;;4.80;0.73;;;;;;;;;;4980972;28;20059;-60
2022/06/09 14:36:16;;;;;;;6.90;1.20;;;;;;;;;;4986830;28;20538;-61
2022/06/09 14:38:42;;;;;;;12.70;1.02;;;;;;;;;;4984300;28;20090;-59
2022/06/09 14:41:11;;;;;;;6.10;1.38;;;;;;;;;;4984891;28;20029;-59
2022/06/09 14:43:37;;;;;;;9.73;0.98;;;;;;;;;;4983839;28;20022;-61
2022/06/09 14:46:02;;;;;;;11.20;1.65;;;;;;;;;;4982750;28;20442;-59
2022/06/09 14:48:32;;;;;;;18.27;1.48;;;;;;;;;;4983276;28;20117;-61
2022/06/09 14:50:59;;;;;;;7.15;1.40;;;;;;;;;;4984056;28;20491;-61
2022/06/09 14:53:25;;;;;;;8.52;1.70;;;;;;;;;;4982562;28;20077;-62
2022/06/09 14:55:53;;;;;;;11.98;1.58;;;;;;;;;;4982723;28;20038;-59
2022/06/09 14:58:25;;;;;;;2.70;1.02;;;;;;;;;;4981963;28;20395;-60
2022/06/09 15:00:51;;;;;;;3.95;1.08;;;;;;;;;;4973692;28;20665;-62
2022/06/09 15:03:18;;;;;;;5.32;0.95;;;;;;;;;;4979645;28;20378;-59
2022/06/09 15:05:44;;;;;;;4.90;1.10;;;;;;;;;;4978602;28;20749;-59
2022/06/09 15:08:12;;;;;;;10.32;1.27;;;;;;;;;;4980143;28;20112;-59
2022/06/09 15:10:45;;;;;;;3.83;0.95;;;;;;;;;;4980667;28;20022;-60
2022/06/09 15:13:12;;;;;;;3.83;1.33;;;;;;;;;;4984365;28;20478;-61
2022/06/09 15:15:38;;;;;;;2.15;0.88;;;;;;;;;;4988327;28;20041;-62
2022/06/09 15:18:06;;;;;;;5.43;1.00;;;;;;;;;;4989920;28;20018;-60
2022/06/09 15:20:34;;;;;;;7.07;1.05;;;;;;;;;;4986839;28;20026;-59
2022/06/09 15:23:00;;;;;;;3.30;1.20;;;;;;;;;;4986219;28;20037;-59
2022/06/09 15:25:27;;;;;;;7.28;1.27;;;;;;;;;;4984026;28;20058;-60
2022/06/09 15:27:53;;;;;;;9.95;0.93;;;;;;;;;;4982764;28;20058;-60
2022/06/09 15:30:24;;;;;;;4.82;1.00;;;;;;;;;;4979613;28;20061;-61
2022/06/09 15:32:51;;;;;;;4.72;1.00;;;;;;;;;;4983843;28;20049;-62